Time;durP1;ratioP1;P1;durP2;ratioP2;P2;SDS_P1;SDS_P2;PMS_P1;PMS_P2;Temp;Humidity;BMP_temperature;BMP_pressure;BME280_temperature;BME280_humidity;BME280_pressure;Samples;Min_cycle;Max_cycle;Signal;HPM_P1;HPM_P2
2021/04/03 00:00:39;;;;;;;25.58;6.43;;;8.40;99.90;;;;;;5016095;28;20184;-74
2021/04/03 00:03:08;;;;;;;25.73;7.25;;;8.30;99.90;;;;;;4997982;28;20168;-74
2021/04/03 00:05:34;;;;;;;22.15;6.90;;;8.20;99.90;;;;;;5016028;28;20257;-73
2021/04/03 00:08:01;;;;;;;26.42;7.22;;;8.20;99.90;;;;;;4998852;28;20168;-73
2021/04/03 00:10:37;;;;;;;18.13;6.70;;;8.30;99.90;;;;;;5016420;28;20169;-74
2021/04/03 00:13:03;;;;;;;26.15;8.20;;;8.10;99.90;;;;;;5016327;28;20177;-74
2021/04/03 00:15:29;;;;;;;25.77;7.07;;;8.10;99.90;;;;;;5015829;28;20197;-73
2021/04/03 00:17:55;;;;;;;20.30;7.55;;;8.00;99.90;;;;;;5015989;28;20176;-74
2021/04/03 00:20:24;;;;;;;20.88;7.50;;;8.00;99.90;;;;;;5015987;28;20173;-74
2021/04/03 00:22:50;;;;;;;17.13;6.95;;;8.00;99.90;;;;;;4998766;28;20634;-74
2021/04/03 00:25:15;;;;;;;31.80;8.38;;;8.00;99.90;;;;;;5015881;28;20259;-74
2021/04/03 00:27:44;;;;;;;27.92;8.68;;;7.90;99.90;;;;;;5013520;28;20169;-74
2021/04/03 00:30:15;;;;;;;34.97;8.30;;;8.00;99.90;;;;;;5016225;28;20177;-74
2021/04/03 00:32:49;;;;;;;22.20;8.05;;;8.20;99.90;;;;;;5015720;28;20165;-74
2021/04/03 00:35:18;;;;;;;23.52;9.20;;;8.40;99.90;;;;;;5015792;28;20733;-73
2021/04/03 00:37:44;;;;;;;20.13;7.70;;;8.60;99.90;;;;;;5015185;28;20175;-74
2021/04/03 00:40:14;;;;;;;19.58;7.43;;;8.80;99.90;;;;;;5015855;28;20177;-74
2021/04/03 00:42:41;;;;;;;23.92;7.57;;;8.80;99.90;;;;;;5015883;28;20196;-74
2021/04/03 00:45:07;;;;;;;24.90;7.95;;;8.80;99.90;;;;;;5015443;28;20255;-75
2021/04/03 00:47:33;;;;;;;19.45;7.60;;;8.90;99.90;;;;;;5015199;28;20182;-75
2021/04/03 00:49:59;;;;;;;19.58;7.38;;;8.90;99.90;;;;;;4998191;28;20183;-74
2021/04/03 00:52:24;;;;;;;24.73;7.43;;;8.90;99.90;;;;;;5015481;28;20641;-74
2021/04/03 00:54:51;;;;;;;23.00;7.25;;;8.90;99.90;;;;;;5014293;28;20205;-73
2021/04/03 00:57:17;;;;;;;23.90;7.03;;;8.90;99.90;;;;;;5015025;28;20180;-73
2021/04/03 00:59:43;;;;;;;24.77;7.00;;;8.80;99.90;;;;;;5014986;28;20188;-73
2021/04/03 01:02:08;;;;;;;21.63;7.07;;;8.80;99.90;;;;;;4997120;28;20168;-74
2021/04/03 01:04:35;;;;;;;19.90;7.10;;;8.80;99.90;;;;;;4997714;28;20219;-74
2021/04/03 01:07:00;;;;;;;27.25;7.40;;;8.80;99.90;;;;;;4997376;28;20251;-74
2021/04/03 01:09:26;;;;;;;29.00;7.32;;;8.80;99.90;;;;;;5014534;28;20652;-73
2021/04/03 01:12:14;;;;;;;23.45;6.95;;;8.90;99.90;;;;;;5014915;28;20316;-73
2021/04/03 01:14:58;;;;;;;29.15;6.97;;;9.00;99.90;;;;;;5015447;28;20240;-73
2021/04/03 01:17:30;;;;;;;21.02;7.25;;;9.00;99.90;;;;;;5014774;28;20183;-74
2021/04/03 01:20:11;;;;;;;27.67;7.05;;;9.00;99.90;;;;;;5014854;28;20180;-74
2021/04/03 01:23:14;;;;;;;28.73;6.80;;;9.00;99.90;;;;;;5014265;28;20180;-74
2021/04/03 01:26:07;;;;;;;25.25;6.55;;;8.90;99.90;;;;;;4995778;28;20676;-74
2021/04/03 01:28:57;;;;;;;23.02;6.95;;;8.80;99.90;;;;;;5014977;28;20168;-74
2021/04/03 01:31:23;;;;;;;23.02;7.28;;;8.80;99.90;;;;;;5014739;28;20641;-74
2021/04/03 01:33:54;;;;;;;25.63;7.20;;;8.80;99.90;;;;;;4981108;28;20168;-73
2021/04/03 01:36:22;;;;;;;26.25;6.28;;;8.90;99.90;;;;;;5014593;28;20739;-73
2021/04/03 01:38:56;;;;;;;25.98;7.05;;;8.90;99.90;;;;;;5014451;28;20251;-73
2021/04/03 01:41:24;;;;;;;20.83;6.68;;;9.10;99.90;;;;;;4996969;28;20172;-74
2021/04/03 01:43:53;;;;;;;26.95;7.32;;;9.10;99.90;;;;;;4996998;28;20235;-73
2021/04/03 01:46:22;;;;;;;21.30;6.63;;;9.10;99.90;;;;;;5014442;28;20173;-73
2021/04/03 01:48:50;;;;;;;26.15;6.95;;;9.10;99.90;;;;;;5014416;28;20267;-74
2021/04/03 01:51:17;;;;;;;25.50;6.88;;;9.00;99.90;;;;;;4996737;28;20186;-73
2021/04/03 01:53:44;;;;;;;21.77;6.43;;;9.00;99.90;;;;;;5014607;28;20169;-74
2021/04/03 01:56:12;;;;;;;32.92;7.32;;;9.00;99.90;;;;;;4996616;28;20279;-74
2021/04/03 01:58:39;;;;;;;27.58;6.35;;;8.90;99.90;;;;;;5014384;28;20529;-74
2021/04/03 02:01:08;;;;;;;20.40;6.22;;;8.90;99.90;;;;;;5014124;28;20263;-73
2021/04/03 02:03:34;;;;;;;23.85;6.43;;;8.80;99.90;;;;;;5014191;28;20256;-73
2021/04/03 02:06:10;;;;;;;30.95;6.32;;;8.60;99.90;;;;;;5014023;28;20272;-73
2021/04/03 02:08:36;;;;;;;23.05;5.93;;;8.50;99.90;;;;;;5013998;28;20205;-73
2021/04/03 02:11:07;;;;;;;25.55;5.72;;;8.50;99.90;;;;;;5013629;28;20608;-73
2021/04/03 02:13:34;;;;;;;27.45;5.93;;;8.60;99.90;;;;;;4996602;28;20180;-73
2021/04/03 02:16:01;;;;;;;24.08;5.68;;;8.50;99.90;;;;;;4996056;28;20681;-74
2021/04/03 02:18:31;;;;;;;18.67;4.78;;;8.30;99.90;;;;;;5014111;28;20177;-73
2021/04/03 02:21:07;;;;;;;23.60;4.32;;;8.20;99.90;;;;;;5013400;28;20197;-74
2021/04/03 02:23:34;;;;;;;11.52;2.78;;;8.10;99.90;;;;;;5013974;28;20573;-73
2021/04/03 02:26:00;;;;;;;8.98;2.60;;;8.10;99.90;;;;;;5014007;28;20242;-74
2021/04/03 02:28:25;;;;;;;7.72;2.08;;;8.10;99.90;;;;;;4996627;28;20165;-73
2021/04/03 02:30:53;;;;;;;15.40;2.47;;;8.00;99.90;;;;;;4996125;28;20548;-73
2021/04/03 02:33:19;;;;;;;11.10;2.67;;;8.10;99.90;;;;;;4995771;28;20196;-73
2021/04/03 02:35:44;;;;;;;10.73;2.97;;;8.00;99.90;;;;;;4995980;28;20673;-73
2021/04/03 02:38:12;;;;;;;14.25;2.97;;;8.00;99.90;;;;;;5013762;28;20183;-73
2021/04/03 02:40:37;;;;;;;12.35;2.10;;;7.80;99.90;;;;;;4996082;28;20177;-74
2021/04/03 02:43:32;;;;;;;12.35;2.35;;;7.90;99.90;;;;;;4995507;28;20508;-74
2021/04/03 02:46:18;;;;;;;10.80;2.08;;;7.90;99.90;;;;;;5013579;28;20179;-73
2021/04/03 02:48:56;;;;;;;17.50;2.72;;;7.90;99.90;;;;;;5013755;28;20171;-73
2021/04/03 02:51:30;;;;;;;15.95;2.47;;;7.90;99.90;;;;;;4995943;28;20217;-73
2021/04/03 02:53:59;;;;;;;26.38;3.10;;;8.00;99.90;;;;;;5013217;28;20172;-73
2021/04/03 02:56:27;;;;;;;8.07;2.33;;;8.10;99.90;;;;;;5013333;28;20196;-74
2021/04/03 02:58:55;;;;;;;15.57;2.80;;;7.90;99.90;;;;;;5013224;28;20179;-73
2021/04/03 03:01:22;;;;;;;16.92;3.13;;;8.10;99.90;;;;;;5013000;28;20231;-73
2021/04/03 03:03:50;;;;;;;15.95;3.17;;;8.00;99.90;;;;;;5013288;28;20579;-73
2021/04/03 03:06:18;;;;;;;14.13;3.05;;;8.10;99.90;;;;;;5013366;28;20169;-73
2021/04/03 03:08:45;;;;;;;18.15;3.00;;;8.10;99.90;;;;;;5014341;28;20180;-73
2021/04/03 03:11:13;;;;;;;16.30;2.90;;;8.10;99.90;;;;;;4982250;28;20688;-73
2021/04/03 03:13:39;;;;;;;22.55;2.88;;;8.10;99.90;;;;;;5014695;28;20173;-73
2021/04/03 03:16:06;;;;;;;23.90;3.38;;;8.00;99.90;;;;;;5013589;28;20200;-73
2021/04/03 03:18:33;;;;;;;17.25;3.08;;;8.00;99.90;;;;;;5013345;28;20601;-73
2021/04/03 03:21:00;;;;;;;17.15;2.97;;;8.00;99.90;;;;;;4995565;28;20195;-73
2021/04/03 03:23:27;;;;;;;16.92;2.72;;;7.90;99.90;;;;;;4979521;28;20675;-73
2021/04/03 03:25:57;;;;;;;18.17;3.35;;;7.80;99.90;;;;;;4982625;28;20238;-73
2021/04/03 03:28:25;;;;;;;15.55;2.65;;;7.60;99.90;;;;;;5017367;28;20231;-73
2021/04/03 03:30:51;;;;;;;25.13;3.75;;;7.50;99.90;;;;;;4999353;28;20204;-73
2021/04/03 03:33:17;;;;;;;13.18;2.80;;;7.40;99.90;;;;;;5017076;28;20197;-73
2021/04/03 03:35:43;;;;;;;13.90;2.20;;;7.30;99.90;;;;;;5016628;28;20235;-73
2021/04/03 03:38:09;;;;;;;17.60;3.20;;;7.20;99.90;;;;;;5016939;28;20165;-73
2021/04/03 03:40:35;;;;;;;12.38;2.45;;;7.30;99.90;;;;;;4999098;28;20547;-73
2021/04/03 03:43:01;;;;;;;16.97;2.57;;;7.40;99.90;;;;;;5017110;28;20165;-73
2021/04/03 03:45:28;;;;;;;17.73;2.60;;;7.30;99.90;;;;;;4998729;28;20181;-73
2021/04/03 03:47:54;;;;;;;14.63;3.05;;;7.20;99.90;;;;;;5016802;28;20169;-73
2021/04/03 03:50:20;;;;;;;17.95;3.20;;;7.40;99.90;;;;;;5016723;28;20173;-73
2021/04/03 03:52:46;;;;;;;19.10;3.35;;;7.40;99.90;;;;;;4999042;28;20176;-73
2021/04/03 03:55:12;;;;;;;30.95;3.70;;;7.40;99.90;;;;;;4998980;28;20681;-73
2021/04/03 03:57:38;;;;;;;17.98;3.53;;;7.50;99.90;;;;;;4998749;28;20633;-74
2021/04/03 04:00:07;;;;;;;19.90;3.55;;;7.50;99.90;;;;;;4998809;28;20227;-73
2021/04/03 04:02:33;;;;;;;16.35;3.55;;;7.50;99.90;;;;;;4998960;28;20184;-73
2021/04/03 04:04:59;;;;;;;17.30;2.60;;;7.40;99.90;;;;;;5016497;28;20165;-73
2021/04/03 04:07:25;;;;;;;19.77;3.60;;;7.30;99.90;;;;;;5016040;28;20200;-73
2021/04/03 04:09:51;;;;;;;18.77;3.10;;;7.40;99.90;;;;;;5015936;28;20622;-74
2021/04/03 04:12:16;;;;;;;20.20;3.10;;;7.50;99.90;;;;;;5016369;28;20196;-73
2021/04/03 04:14:42;;;;;;;25.88;4.25;;;7.60;99.90;;;;;;5016398;28;20615;-73
2021/04/03 04:17:08;;;;;;;29.52;4.10;;;7.70;99.90;;;;;;4998603;28;20212;-74
2021/04/03 04:19:34;;;;;;;25.17;3.85;;;7.80;99.90;;;;;;4998595;28;20611;-73
2021/04/03 04:22:01;;;;;;;28.58;4.32;;;8.00;99.90;;;;;;5016193;28;20195;-73
2021/04/03 04:24:27;;;;;;;25.17;4.53;;;8.00;99.90;;;;;;5016181;28;20220;-73
2021/04/03 04:26:53;;;;;;;12.80;3.20;;;8.10;99.90;;;;;;4982570;28;20176;-73
2021/04/03 04:29:19;;;;;;;21.15;4.10;;;8.00;99.90;;;;;;5015851;28;20629;-73
2021/04/03 04:31:44;;;;;;;21.02;3.30;;;8.00;99.90;;;;;;4998246;28;20532;-73
2021/04/03 04:34:10;;;;;;;17.65;3.42;;;8.00;99.90;;;;;;5015917;28;20626;-73
2021/04/03 04:36:35;;;;;;;26.70;4.15;;;8.00;99.90;;;;;;5014550;28;20219;-73
2021/04/03 04:39:01;;;;;;;21.40;4.40;;;8.00;99.90;;;;;;4997906;28;20187;-73
2021/04/03 04:41:27;;;;;;;38.13;4.38;;;8.00;99.90;;;;;;5015753;28;20177;-73
2021/04/03 04:43:53;;;;;;;18.95;4.47;;;7.90;99.90;;;;;;4981585;28;20184;-73
2021/04/03 04:46:18;;;;;;;26.23;4.40;;;7.50;99.90;;;;;;5016117;28;20184;-74
2021/04/03 04:48:44;;;;;;;20.55;3.95;;;7.60;99.90;;;;;;5015686;28;20188;-74
2021/04/03 04:51:09;;;;;;;23.23;4.05;;;7.70;99.90;;;;;;5015278;28;20679;-73
2021/04/03 04:53:35;;;;;;;23.73;4.18;;;7.70;99.90;;;;;;5016127;28;20173;-74
2021/04/03 04:56:01;;;;;;;17.45;3.95;;;7.90;99.90;;;;;;5015586;28;20196;-73
2021/04/03 04:58:26;;;;;;;26.67;4.40;;;8.00;99.90;;;;;;4998180;28;20537;-73
2021/04/03 05:00:52;;;;;;;18.50;3.92;;;7.90;99.90;;;;;;4997257;28;20181;-74
2021/04/03 05:03:18;;;;;;;31.38;4.45;;;7.80;99.90;;;;;;4997863;28;20185;-73
2021/04/03 05:05:43;;;;;;;25.95;4.07;;;7.60;99.90;;;;;;4997773;28;20544;-73
2021/04/03 05:08:09;;;;;;;20.98;4.45;;;7.60;99.90;;;;;;5015645;28;20173;-73
2021/04/03 05:10:35;;;;;;;30.65;4.43;;;7.60;99.90;;;;;;4998657;28;20177;-73
2021/04/03 05:13:04;;;;;;;20.05;3.83;;;7.60;99.90;;;;;;5015888;28;20211;-73
2021/04/03 05:15:30;;;;;;;26.67;4.13;;;7.50;99.90;;;;;;4998410;28;20203;-73
2021/04/03 05:17:56;;;;;;;27.13;4.00;;;7.40;99.90;;;;;;5015321;28;20168;-73
2021/04/03 05:20:22;;;;;;;24.95;4.03;;;7.50;99.90;;;;;;5014238;28;20180;-73
2021/04/03 05:22:48;;;;;;;19.77;3.58;;;7.50;99.90;;;;;;4997362;28;20256;-73
2021/04/03 05:25:14;;;;;;;21.02;3.67;;;7.40;99.90;;;;;;5015327;28;20172;-73
2021/04/03 05:27:40;;;;;;;23.77;4.93;;;7.40;99.90;;;;;;5015404;28;20177;-73
2021/04/03 05:30:07;;;;;;;35.63;4.35;;;7.20;99.90;;;;;;5014038;28;20525;-73
2021/04/03 05:32:33;;;;;;;27.27;4.07;;;7.30;99.90;;;;;;5014031;28;20173;-73
2021/04/03 05:34:59;;;;;;;29.63;3.50;;;7.30;99.90;;;;;;4981038;28;20213;-73
2021/04/03 05:37:25;;;;;;;28.55;4.38;;;7.20;99.90;;;;;;5015113;28;20183;-73
2021/04/03 05:39:50;;;;;;;18.20;3.33;;;7.20;99.90;;;;;;5014781;28;20235;-73
2021/04/03 05:42:18;;;;;;;19.88;3.65;;;7.30;99.90;;;;;;4996232;28;20176;-73
2021/04/03 05:44:44;;;;;;;14.93;2.90;;;7.40;99.90;;;;;;4997103;28;20169;-73
2021/04/03 05:47:12;;;;;;;23.42;3.53;;;7.40;99.90;;;;;;4996550;28;20622;-73
2021/04/03 05:49:39;;;;;;;24.45;3.38;;;7.50;99.90;;;;;;5014303;28;20161;-73
2021/04/03 05:52:06;;;;;;;25.83;3.63;;;7.70;99.90;;;;;;5014319;28;20275;-73
2021/04/03 05:54:35;;;;;;;18.27;3.42;;;7.90;99.90;;;;;;5013993;28;20173;-73
2021/04/03 05:57:01;;;;;;;18.65;3.45;;;8.00;99.90;;;;;;5014537;28;20169;-73
2021/04/03 05:59:27;;;;;;;22.92;4.22;;;7.90;99.90;;;;;;5014317;28;20169;-73
2021/04/03 06:01:53;;;;;;;21.45;3.15;;;7.90;99.90;;;;;;5013795;28;20231;-73
2021/04/03 06:04:18;;;;;;;24.38;4.25;;;7.80;99.90;;;;;;5014108;28;20173;-73
2021/04/03 06:06:44;;;;;;;17.25;3.38;;;7.90;99.90;;;;;;4980725;28;20271;-74
2021/04/03 06:09:10;;;;;;;19.38;4.20;;;7.90;99.90;;;;;;5014168;28;20173;-73
2021/04/03 06:11:46;;;;;;;18.65;3.53;;;8.10;99.90;;;;;;4996635;28;20173;-73
2021/04/03 06:14:12;;;;;;;24.67;3.38;;;8.20;99.90;;;;;;5013854;28;20255;-73
2021/04/03 06:16:40;;;;;;;14.95;2.72;;;8.30;99.90;;;;;;4996225;28;20208;-73
2021/04/03 06:19:08;;;;;;;16.90;2.88;;;8.30;99.90;;;;;;5013873;28;20172;-73
2021/04/03 06:21:34;;;;;;;20.30;3.15;;;8.40;99.90;;;;;;4995986;28;20184;-73
2021/04/03 06:24:00;;;;;;;25.60;3.50;;;8.60;99.90;;;;;;4996509;28;20169;-73
2021/04/03 06:26:26;;;;;;;18.58;3.65;;;8.80;99.90;;;;;;5013723;28;20362;-75
2021/04/03 06:28:52;;;;;;;24.33;3.00;;;8.70;99.90;;;;;;4995970;28;20177;-74
2021/04/03 06:31:18;;;;;;;25.30;3.92;;;8.70;99.90;;;;;;5013695;28;20684;-73
2021/04/03 06:33:44;;;;;;;31.17;5.53;;;8.70;99.90;;;;;;4996384;28;20518;-73
2021/04/03 06:36:11;;;;;;;28.05;4.10;;;8.90;99.90;;;;;;4995771;28;20207;-73
2021/04/03 06:38:38;;;;;;;26.45;4.35;;;8.80;99.90;;;;;;4996263;28;20695;-73
2021/04/03 06:41:26;;;;;;;21.90;3.40;;;8.90;99.90;;;;;;5013536;28;20172;-73
2021/04/03 06:44:18;;;;;;;21.80;3.83;;;9.00;99.90;;;;;;5013598;28;20179;-73
2021/04/03 06:46:45;;;;;;;21.33;3.35;;;8.70;99.90;;;;;;4992426;28;20664;-73
2021/04/03 06:49:12;;;;;;;19.95;4.20;;;8.50;99.90;;;;;;4996064;28;20196;-72
2021/04/03 06:51:38;;;;;;;12.98;3.10;;;8.50;99.90;;;;;;5013499;28;20247;-73
2021/04/03 06:54:06;;;;;;;24.20;3.70;;;8.70;99.90;;;;;;4995974;28;20209;-73
2021/04/03 06:56:37;;;;;;;21.42;4.18;;;9.00;99.90;;;;;;5013343;28;20201;-73
2021/04/03 06:59:06;;;;;;;26.30;3.63;;;9.00;99.90;;;;;;5012529;28;20540;-73
2021/04/03 07:01:55;;;;;;;32.05;4.10;;;9.20;99.90;;;;;;4995900;28;20171;-74
2021/04/03 07:04:26;;;;;;;18.67;3.53;;;9.50;99.90;;;;;;5013719;28;20165;-74
2021/04/03 07:06:53;;;;;;;24.05;4.80;;;9.60;99.90;;;;;;5013424;28;20184;-74
2021/04/03 07:09:19;;;;;;;27.52;4.55;;;9.50;99.90;;;;;;5012983;28;20184;-73
2021/04/03 07:11:51;;;;;;;23.08;3.45;;;9.40;99.90;;;;;;4995945;28;20177;-74
2021/04/03 07:14:18;;;;;;;14.73;3.30;;;9.30;99.90;;;;;;5013117;28;20618;-73
2021/04/03 07:16:45;;;;;;;23.08;3.55;;;9.50;99.90;;;;;;5013160;28;20214;-73
2021/04/03 07:19:12;;;;;;;28.80;3.75;;;9.30;99.90;;;;;;5012985;28;20202;-74
2021/04/03 07:21:37;;;;;;;29.10;3.90;;;9.30;99.90;;;;;;5012884;28;20725;-74
2021/04/03 07:24:04;;;;;;;20.27;3.75;;;9.50;99.90;;;;;;4995782;28;20204;-74
2021/04/03 07:26:31;;;;;;;22.55;3.83;;;9.50;99.90;;;;;;5013087;28;20173;-73
2021/04/03 07:28:56;;;;;;;33.10;4.50;;;9.60;99.90;;;;;;4995422;28;20177;-74
2021/04/03 07:31:45;;;;;;;11.27;3.22;;;9.60;99.90;;;;;;5012202;28;20183;-73
2021/04/03 07:34:12;;;;;;;23.35;3.13;;;9.40;99.90;;;;;;5013284;28;20173;-74
2021/04/03 07:36:41;;;;;;;20.10;3.42;;;9.40;99.90;;;;;;4995601;28;20204;-74
2021/04/03 07:39:27;;;;;;;21.00;3.63;;;9.30;99.90;;;;;;4995658;28;20181;-74
2021/04/03 07:41:53;;;;;;;22.38;2.97;;;9.40;99.90;;;;;;5012441;28;20180;-73
2021/04/03 07:44:19;;;;;;;18.85;3.70;;;9.80;99.90;;;;;;5013568;28;20173;-74
2021/04/03 07:46:46;;;;;;;24.85;3.70;;;9.90;99.90;;;;;;5013451;28;20195;-74
2021/04/03 07:49:32;;;;;;;17.45;3.85;;;9.40;99.90;;;;;;5012795;28;20195;-74
2021/04/03 07:51:57;;;;;;;18.48;3.22;;;9.00;99.90;;;;;;5012658;28;20176;-75
2021/04/03 07:54:26;;;;;;;18.65;3.55;;;9.00;99.90;;;;;;5012679;28;20227;-74
2021/04/03 07:56:57;;;;;;;22.38;4.68;;;8.80;99.90;;;;;;5011752;28;20188;-74
2021/04/03 07:59:51;;;;;;;29.83;4.15;;;9.00;99.90;;;;;;4994951;28;20537;-73
2021/04/03 08:02:19;;;;;;;20.67;3.45;;;9.40;99.90;;;;;;5012621;28;20298;-73
2021/04/03 08:04:45;;;;;;;31.05;4.05;;;9.60;99.90;;;;;;4995260;28;20180;-74
2021/04/03 08:07:11;;;;;;;24.50;4.78;;;9.60;99.90;;;;;;4995699;28;20176;-74
2021/04/03 08:09:37;;;;;;;27.23;3.60;;;9.50;99.90;;;;;;4995180;28;20669;-75
2021/04/03 08:12:07;;;;;;;24.42;4.32;;;9.80;99.90;;;;;;5016556;28;20169;-74
2021/04/03 08:14:35;;;;;;;22.50;3.92;;;9.80;99.90;;;;;;5016604;28;20164;-75
2021/04/03 08:17:02;;;;;;;20.55;3.70;;;9.70;99.90;;;;;;5016093;28;20169;-75
2021/04/03 08:19:33;;;;;;;18.50;3.30;;;9.70;99.90;;;;;;4982153;28;20810;-75
2021/04/03 08:21:59;;;;;;;16.83;3.17;;;9.50;99.90;;;;;;5016408;28;20275;-74
2021/04/03 08:24:25;;;;;;;17.95;3.55;;;9.50;99.90;;;;;;5013881;28;20199;-73
2021/04/03 08:26:52;;;;;;;22.23;4.25;;;9.60;99.90;;;;;;5015696;28;20211;-74
2021/04/03 08:29:31;;;;;;;20.80;3.65;;;9.60;99.90;;;;;;4998428;28;20211;-73
2021/04/03 08:31:59;;;;;;;20.27;4.95;;;9.90;99.90;;;;;;5015605;28;20215;-73
2021/04/03 08:34:25;;;;;;;22.77;3.28;;;10.10;99.90;;;;;;5015624;28;20264;-75
2021/04/03 08:36:52;;;;;;;16.90;4.15;;;9.90;99.90;;;;;;4981608;28;20255;-74
2021/04/03 08:39:21;;;;;;;23.33;4.35;;;9.80;99.90;;;;;;4998638;28;20226;-73
2021/04/03 08:41:49;;;;;;;25.75;4.22;;;9.90;99.90;;;;;;5015772;28;20177;-73
2021/04/03 08:44:20;;;;;;;19.48;3.72;;;10.00;99.90;;;;;;4997239;28;20625;-73
2021/04/03 08:46:49;;;;;;;25.85;4.00;;;10.10;99.90;;;;;;5015721;28;20177;-74
2021/04/03 08:49:34;;;;;;;22.15;3.50;;;10.20;99.90;;;;;;5015471;28;20181;-74
2021/04/03 08:52:00;;;;;;;20.55;3.85;;;10.80;99.90;;;;;;5015635;28;20239;-74
2021/04/03 08:54:34;;;;;;;27.80;3.88;;;11.10;99.90;;;;;;4997815;28;20169;-74
2021/04/03 08:57:00;;;;;;;24.80;5.10;;;10.90;99.90;;;;;;5015329;28;20311;-75
2021/04/03 08:59:27;;;;;;;17.92;3.53;;;10.50;99.90;;;;;;4997689;28;20256;-73
2021/04/03 09:01:54;;;;;;;18.23;3.67;;;10.10;99.90;;;;;;4998684;28;20266;-73
2021/04/03 09:04:20;;;;;;;17.70;4.20;;;10.40;99.90;;;;;;5015291;28;20169;-73
2021/04/03 09:06:46;;;;;;;22.58;4.28;;;10.90;99.90;;;;;;5014848;28;20173;-73
2021/04/03 09:09:15;;;;;;;16.52;3.35;;;11.30;99.90;;;;;;5015395;28;20172;-73
2021/04/03 09:11:54;;;;;;;19.95;3.08;;;11.70;99.90;;;;;;5015546;28;20203;-73
2021/04/03 09:14:35;;;;;;;18.08;3.50;;;12.10;99.90;;;;;;4998739;28;20179;-74
2021/04/03 09:17:02;;;;;;;18.65;3.88;;;12.10;99.90;;;;;;5015970;28;20198;-73
2021/04/03 09:19:33;;;;;;;24.50;4.10;;;11.80;99.90;;;;;;5015320;28;20180;-72
2021/04/03 09:22:00;;;;;;;19.98;3.40;;;11.60;99.90;;;;;;5015133;28;20192;-74
2021/04/03 09:24:35;;;;;;;32.25;4.47;;;11.30;99.90;;;;;;5015576;28;20165;-74
2021/04/03 09:27:13;;;;;;;19.95;3.67;;;11.50;99.90;;;;;;5015250;28;20259;-76
2021/04/03 09:29:40;;;;;;;38.78;4.55;;;11.20;99.90;;;;;;5011405;28;20192;-76
2021/04/03 09:32:11;;;;;;;22.65;4.00;;;11.30;99.90;;;;;;5013591;28;20180;-74
2021/04/03 09:34:37;;;;;;;14.95;3.20;;;11.60;99.90;;;;;;5014476;28;20207;-75
2021/04/03 09:37:16;;;;;;;20.67;3.22;;;11.70;99.90;;;;;;4997026;28;20238;-74
2021/04/03 09:39:52;;;;;;;19.83;3.72;;;11.90;99.90;;;;;;4996401;28;20585;-74
2021/04/03 09:42:22;;;;;;;19.65;3.88;;;11.50;99.90;;;;;;4996276;28;20641;-74
2021/04/03 09:44:49;;;;;;;10.60;2.80;;;11.40;99.90;;;;;;5013827;28;20179;-76
2021/04/03 09:47:17;;;;;;;18.88;3.80;;;11.10;99.90;;;;;;5014454;28;20176;-73
2021/04/03 09:49:45;;;;;;;14.35;3.58;;;11.40;99.90;;;;;;5014532;28;20260;-73
2021/04/03 09:52:13;;;;;;;23.52;3.80;;;11.90;99.90;;;;;;5013573;28;20181;-73
2021/04/03 09:54:40;;;;;;;13.10;3.28;;;12.40;99.90;;;;;;5014428;28;20169;-74
2021/04/03 09:57:05;;;;;;;23.45;4.32;;;12.60;99.90;;;;;;5014459;28;20180;-74
2021/04/03 09:59:32;;;;;;;17.60;5.72;;;12.70;99.90;;;;;;5013241;28;20169;-74
2021/04/03 10:01:58;;;;;;;22.90;4.05;;;12.80;99.90;;;;;;4996260;28;20176;-73
2021/04/03 10:04:24;;;;;;;21.40;3.88;;;12.40;99.90;;;;;;4996572;28;20613;-73
2021/04/03 10:06:51;;;;;;;12.40;3.25;;;12.50;99.90;;;;;;4996189;28;20215;-74
2021/04/03 10:09:17;;;;;;;20.23;3.53;;;12.30;99.90;;;;;;5013825;28;20218;-73
2021/04/03 10:11:43;;;;;;;16.38;3.88;;;12.20;99.90;;;;;;4996122;28;20260;-74
2021/04/03 10:14:09;;;;;;;20.27;5.15;;;11.90;99.90;;;;;;5013768;28;20280;-74
2021/04/03 10:16:35;;;;;;;31.48;4.55;;;12.40;99.90;;;;;;4997850;28;20208;-73
2021/04/03 10:19:00;;;;;;;14.93;3.95;;;14.20;99.90;;;;;;4980727;28;20208;-73
2021/04/03 10:21:26;;;;;;;20.17;3.72;;;15.80;99.90;;;;;;5014436;28;20215;-73
2021/04/03 10:23:52;;;;;;;18.23;4.43;;;15.30;99.90;;;;;;4998113;28;20215;-74
2021/04/03 10:26:19;;;;;;;15.57;3.70;;;16.70;99.90;;;;;;5015931;28;20223;-76
2021/04/03 10:28:44;;;;;;;14.80;4.25;;;17.20;99.90;;;;;;5000342;28;20700;-75
2021/04/03 10:31:11;;;;;;;17.10;4.53;;;15.60;99.90;;;;;;4997411;28;20172;-74
2021/04/03 10:33:37;;;;;;;22.38;4.22;;;14.50;99.90;;;;;;4997819;28;20169;-75
2021/04/03 10:36:07;;;;;;;11.77;3.75;;;14.10;99.90;;;;;;5013872;28;20371;-74
2021/04/03 10:38:34;;;;;;;16.25;3.65;;;14.90;99.90;;;;;;5017202;28;20172;-74
2021/04/03 10:41:01;;;;;;;26.52;4.20;;;14.60;99.90;;;;;;5015373;28;20176;-74
2021/04/03 10:43:27;;;;;;;20.80;4.53;;;13.70;99.90;;;;;;4997115;28;20510;-74
2021/04/03 10:45:52;;;;;;;15.55;3.83;;;13.50;99.90;;;;;;5014489;28;20172;-74
2021/04/03 10:48:18;;;;;;;18.63;4.18;;;14.00;99.90;;;;;;4996316;28;20177;-74
2021/04/03 10:50:44;;;;;;;21.13;4.55;;;14.40;99.90;;;;;;4997078;28;20222;-74
2021/04/03 10:53:10;;;;;;;16.15;3.97;;;14.10;99.90;;;;;;4997837;28;20172;-75
2021/04/03 10:55:36;;;;;;;12.90;3.30;;;14.80;99.90;;;;;;5015344;28;20185;-75
2021/04/03 10:58:02;;;;;;;16.02;3.88;;;17.30;99.90;;;;;;5015505;28;20173;-75
2021/04/03 11:00:28;;;;;;;11.05;3.15;;;15.70;99.90;;;;;;5014773;28;20529;-74
2021/04/03 11:02:54;;;;;;;19.15;3.35;;;18.50;99.00;;;;;;5014217;28;20176;-74
2021/04/03 11:05:21;;;;;;;14.15;4.03;;;20.90;94.20;;;;;;5013802;28;20183;-75
2021/04/03 11:07:46;;;;;;;13.02;4.00;;;22.70;90.90;;;;;;4996126;28;20576;-75
2021/04/03 11:10:13;;;;;;;13.80;3.92;;;20.70;87.90;;;;;;4995491;28;20180;-75
2021/04/03 11:12:39;;;;;;;10.02;3.05;;;18.80;90.80;;;;;;5013884;28;20184;-75
2021/04/03 11:15:06;;;;;;;16.27;3.42;;;16.70;94.10;;;;;;5013407;28;20202;-74
2021/04/03 11:17:32;;;;;;;16.67;3.85;;;14.80;95.80;;;;;;5013240;28;20259;-75
2021/04/03 11:19:57;;;;;;;16.30;3.78;;;14.30;98.40;;;;;;5013057;28;20371;-74
2021/04/03 11:22:24;;;;;;;16.27;4.35;;;14.90;98.00;;;;;;4995806;28;20251;-75
2021/04/03 11:24:50;;;;;;;18.25;4.50;;;16.40;97.10;;;;;;4979310;28;20179;-75
2021/04/03 11:27:16;;;;;;;16.88;4.30;;;16.80;95.50;;;;;;5013382;28;20637;-74
2021/04/03 11:29:42;;;;;;;15.30;3.65;;;15.80;96.00;;;;;;5012829;28;20173;-74
2021/04/03 11:32:07;;;;;;;15.93;4.00;;;15.70;96.80;;;;;;4993965;28;20259;-74
2021/04/03 11:34:33;;;;;;;10.48;3.53;;;16.10;97.20;;;;;;4995173;28;20180;-75
2021/04/03 11:36:59;;;;;;;17.15;3.88;;;16.90;96.30;;;;;;5013111;28;20181;-74
2021/04/03 11:39:24;;;;;;;13.20;3.67;;;17.30;95.30;;;;;;4995237;28;20221;-74
2021/04/03 11:41:50;;;;;;;17.67;3.95;;;16.00;96.40;;;;;;5012721;28;20176;-74
2021/04/03 11:44:15;;;;;;;10.45;3.90;;;15.20;96.50;;;;;;5012973;28;20648;-74
2021/04/03 11:46:41;;;;;;;10.15;3.78;;;14.80;96.90;;;;;;5016887;28;20181;-75
2021/04/03 11:49:07;;;;;;;15.00;3.58;;;14.50;97.30;;;;;;5016919;28;20529;-74
2021/04/03 11:51:33;;;;;;;17.10;3.95;;;14.40;97.80;;;;;;5015920;28;20649;-76
2021/04/03 11:53:58;;;;;;;15.48;3.95;;;13.80;99.00;;;;;;4999003;28;20229;-76
2021/04/03 11:56:24;;;;;;;16.05;4.00;;;14.80;98.90;;;;;;5016989;28;20204;-75
2021/04/03 11:58:50;;;;;;;19.77;4.13;;;17.30;97.20;;;;;;5016829;28;20644;-75
2021/04/03 12:01:16;;;;;;;22.08;3.42;;;18.60;93.20;;;;;;4998182;28;20192;-77
2021/04/03 12:03:41;;;;;;;11.90;3.95;;;18.00;93.20;;;;;;5016061;28;20179;-76
2021/04/03 12:06:07;;;;;;;7.32;3.05;;;18.30;93.20;;;;;;5015977;28;20204;-75
2021/04/03 12:08:32;;;;;;;14.73;3.60;;;20.20;90.70;;;;;;5016497;28;20172;-75
2021/04/03 12:10:58;;;;;;;13.93;3.78;;;19.30;90.20;;;;;;4999365;28;20242;-76
2021/04/03 12:13:26;;;;;;;25.85;4.30;;;19.20;92.00;;;;;;5015552;28;20172;-77
2021/04/03 12:15:54;;;;;;;17.05;3.90;;;18.50;92.80;;;;;;4998580;28;20562;-75
2021/04/03 12:18:20;;;;;;;13.20;4.70;;;18.00;93.10;;;;;;5016283;28;20638;-74
2021/04/03 12:20:46;;;;;;;10.70;3.88;;;17.80;93.40;;;;;;5016007;28;20189;-76
2021/04/03 12:23:12;;;;;;;11.68;3.45;;;16.90;94.30;;;;;;4997995;28;20187;-75
2021/04/03 12:25:37;;;;;;;17.67;3.92;;;15.90;95.30;;;;;;5016076;28;20185;-75
2021/04/03 12:28:04;;;;;;;16.63;3.80;;;15.50;95.60;;;;;;5016379;28;20179;-75
2021/04/03 12:30:29;;;;;;;13.77;4.07;;;15.60;95.00;;;;;;5016098;28;20169;-75
2021/04/03 12:32:55;;;;;;;18.55;4.80;;;15.60;95.40;;;;;;5015712;28;20172;-75
2021/04/03 12:35:21;;;;;;;19.67;3.95;;;16.20;95.40;;;;;;4997586;28;20211;-75
2021/04/03 12:37:46;;;;;;;13.02;4.07;;;16.60;94.50;;;;;;5015742;28;20522;-76
2021/04/03 12:40:12;;;;;;;19.75;3.88;;;16.00;94.20;;;;;;4998457;28;20168;-76
2021/04/03 12:42:39;;;;;;;12.73;3.65;;;15.80;94.60;;;;;;5015442;28;20260;-76
2021/04/03 12:45:07;;;;;;;14.98;3.58;;;15.70;95.80;;;;;;4998337;28;20181;-75
2021/04/03 12:47:32;;;;;;;18.63;4.45;;;15.70;95.40;;;;;;4989368;28;20180;-76